Terminal Aerodrome Forecast
Issued by NWS

Home | Current Version | Previous Version | Text Only | Print | Product List | Glossary On
Versions: 1 2 3 4 5 6 7 8 9 10 11 12 13 14 15 16 17 18 19
000
FTAK31 PAFA 232111 AAA
TAFASC
TAF AMD
PASC 232111Z 2321/2418 11006KT P6SM -RA BKN005 BKN045 OVC070
     FM240000 18012KT 4SM -RA BR SCT005 BKN015 OVC025
     FM240300 21012KT 5SM -SHRA BR SCT005 OVC015
     FM240800 24010KT P6SM -SHRA SCT008 OVC025=

USA.gov is the U.S. government's official web portal to all federal, state and local government web resources and services.